Time;durP1;ratioP1;P1;durP2;ratioP2;P2;SDS_P1;SDS_P2;PMS_P1;PMS_P2;Temp;Humidity;BMP_temperature;BMP_pressure;BME280_temperature;BME280_humidity;BME280_pressure;Samples;Min_cycle;Max_cycle;Signal;HPM_P1;HPM_P2
2021/07/06 00:01:45;;;;;;;3.97;3.58;;;22.90;99.90;;;;;;5012241;28;20021;-80
2021/07/06 00:04:11;;;;;;;5.50;4.25;;;22.90;99.90;;;;;;5012890;28;20044;-77
2021/07/06 00:06:38;;;;;;;4.75;3.55;;;22.90;99.90;;;;;;5013436;28;20610;-76
2021/07/06 00:09:04;;;;;;;7.15;4.55;;;22.90;99.90;;;;;;5013561;28;20486;-77
2021/07/06 00:11:30;;;;;;;4.22;3.83;;;22.90;99.90;;;;;;5012707;28;20080;-76
2021/07/06 00:13:56;;;;;;;6.45;4.20;;;22.80;99.90;;;;;;5013278;28;20125;-77
2021/07/06 00:16:21;;;;;;;4.80;4.03;;;22.80;99.90;;;;;;5013122;28;20072;-76
2021/07/06 00:18:47;;;;;;;9.05;3.80;;;22.80;99.90;;;;;;5012955;28;20025;-76
2021/07/06 00:21:13;;;;;;;7.20;4.13;;;22.80;99.90;;;;;;5012868;28;20049;-75
2021/07/06 00:23:39;;;;;;;5.00;3.78;;;22.80;99.90;;;;;;5012573;28;20410;-75
2021/07/06 00:26:05;;;;;;;8.98;4.13;;;22.70;99.90;;;;;;5013125;28;20038;-75
2021/07/06 00:28:32;;;;;;;6.90;4.45;;;22.70;99.90;;;;;;5012644;28;20430;-79
2021/07/06 00:30:58;;;;;;;4.65;4.18;;;22.70;99.90;;;;;;5012349;28;20474;-78
2021/07/06 00:33:28;;;;;;;8.32;4.47;;;22.70;99.90;;;;;;5011848;28;20029;-79
2021/07/06 00:35:57;;;;;;;4.32;3.80;;;22.70;99.90;;;;;;5011845;28;20101;-78
2021/07/06 00:38:23;;;;;;;5.55;4.18;;;22.70;99.90;;;;;;5011975;28;20105;-77
2021/07/06 00:40:51;;;;;;;4.00;3.60;;;22.70;99.90;;;;;;5011912;28;20022;-76
2021/07/06 00:43:17;;;;;;;6.80;3.97;;;22.70;99.90;;;;;;5011990;28;20022;-78
2021/07/06 00:45:43;;;;;;;10.40;4.68;;;22.60;99.90;;;;;;5011001;28;20740;-75
2021/07/06 00:48:08;;;;;;;4.75;3.80;;;22.50;99.90;;;;;;5011433;28;20100;-76
2021/07/06 00:50:34;;;;;;;9.25;3.97;;;22.60;99.90;;;;;;5011258;28;20025;-75
2021/07/06 00:53:00;;;;;;;4.68;3.70;;;22.50;99.90;;;;;;5009857;28;20105;-78
2021/07/06 00:55:26;;;;;;;5.25;4.38;;;22.50;99.90;;;;;;5011482;28;20021;-77
2021/07/06 00:57:52;;;;;;;9.77;4.35;;;22.50;99.90;;;;;;5011273;28;20729;-76
2021/07/06 01:00:21;;;;;;;10.77;4.60;;;22.50;99.90;;;;;;5011436;28;20103;-82
2021/07/06 01:02:47;;;;;;;13.10;4.15;;;22.50;99.90;;;;;;5011166;28;20371;-81
2021/07/06 01:05:18;;;;;;;13.07;3.78;;;22.50;99.90;;;;;;5011469;28;20033;-80
2021/07/06 01:07:43;;;;;;;5.63;3.80;;;22.50;99.90;;;;;;5011700;28;20129;-76
2021/07/06 01:10:11;;;;;;;8.80;4.07;;;22.50;99.90;;;;;;5011631;28;20106;-77
2021/07/06 01:12:38;;;;;;;11.02;3.58;;;22.50;99.90;;;;;;5011088;28;20033;-79
2021/07/06 01:15:07;;;;;;;5.03;3.90;;;22.40;99.90;;;;;;5010216;28;20018;-76
2021/07/06 01:17:33;;;;;;;10.38;4.28;;;22.40;99.90;;;;;;5010774;28;20022;-79
2021/07/06 01:20:00;;;;;;;5.03;3.90;;;22.50;99.90;;;;;;5011069;28;20026;-80
2021/07/06 01:22:32;;;;;;;4.45;3.70;;;22.40;99.90;;;;;;5011337;28;20395;-76
2021/07/06 01:24:58;;;;;;;4.50;4.05;;;22.40;99.90;;;;;;5011231;28;20490;-79
2021/07/06 01:27:25;;;;;;;5.35;4.18;;;22.40;99.90;;;;;;5010509;28;20046;-78
2021/07/06 01:29:54;;;;;;;5.72;3.80;;;22.40;99.90;;;;;;5011375;28;20018;-76
2021/07/06 01:32:20;;;;;;;4.70;4.20;;;22.40;99.90;;;;;;5010786;28;20045;-79
2021/07/06 01:34:46;;;;;;;4.97;3.80;;;22.30;99.90;;;;;;5009670;28;20034;-76
2021/07/06 01:37:17;;;;;;;8.48;4.45;;;22.30;99.90;;;;;;5011103;28;20104;-75
2021/07/06 01:39:43;;;;;;;4.70;4.03;;;22.30;99.90;;;;;;5009683;28;20382;-77
2021/07/06 01:42:09;;;;;;;4.47;3.67;;;22.20;99.90;;;;;;5010757;28;20430;-76
2021/07/06 01:44:35;;;;;;;4.35;3.90;;;22.20;99.90;;;;;;5010774;28;20026;-81
2021/07/06 01:47:00;;;;;;;10.10;4.00;;;22.10;99.90;;;;;;5009542;28;20113;-77
2021/07/06 01:49:26;;;;;;;5.65;3.75;;;22.10;99.90;;;;;;5010388;28;20080;-76
2021/07/06 01:51:52;;;;;;;5.25;4.20;;;22.00;99.90;;;;;;5011046;28;20037;-75
2021/07/06 01:54:17;;;;;;;10.40;4.00;;;22.00;99.90;;;;;;5009848;28;20026;-77
2021/07/06 01:56:46;;;;;;;9.57;3.78;;;22.00;99.90;;;;;;5010895;28;20034;-77
2021/07/06 01:59:12;;;;;;;8.30;3.83;;;22.00;99.90;;;;;;5010929;28;20100;-75
2021/07/06 02:01:39;;;;;;;5.20;3.95;;;21.90;99.90;;;;;;5010430;28;20093;-77
2021/07/06 02:04:05;;;;;;;6.68;4.20;;;21.90;99.90;;;;;;5009124;28;20393;-75
2021/07/06 02:06:32;;;;;;;5.70;4.13;;;21.90;99.90;;;;;;5010526;28;20088;-75
2021/07/06 02:08:58;;;;;;;9.05;3.60;;;22.00;99.90;;;;;;5010505;28;20029;-78
2021/07/06 02:11:23;;;;;;;6.13;3.70;;;21.90;99.90;;;;;;5010817;28;20434;-78
2021/07/06 02:13:50;;;;;;;7.25;4.20;;;21.90;99.90;;;;;;5009877;28;20097;-79
2021/07/06 02:16:16;;;;;;;6.57;4.95;;;21.90;99.90;;;;;;5010849;28;20033;-76
2021/07/06 02:18:42;;;;;;;7.95;3.58;;;21.90;99.90;;;;;;5010439;28;20504;-75
2021/07/06 02:21:08;;;;;;;9.15;3.50;;;21.90;99.90;;;;;;5010383;28;20372;-76
2021/07/06 02:23:33;;;;;;;4.78;3.90;;;21.90;99.90;;;;;;5010422;28;20117;-79
2021/07/06 02:26:02;;;;;;;6.82;3.95;;;21.90;99.90;;;;;;5011269;28;20112;-77
2021/07/06 02:28:29;;;;;;;6.80;4.05;;;21.90;99.90;;;;;;5015207;28;20056;-76
2021/07/06 02:30:54;;;;;;;9.85;4.05;;;21.90;99.90;;;;;;5015340;28;20014;-79
2021/07/06 02:33:20;;;;;;;7.85;3.30;;;21.90;99.90;;;;;;5014527;28;20045;-76
2021/07/06 02:35:47;;;;;;;4.10;3.42;;;21.90;99.90;;;;;;5014621;28;20026;-77
2021/07/06 02:38:14;;;;;;;9.90;3.80;;;21.90;99.90;;;;;;5014943;28;20026;-79
2021/07/06 02:40:39;;;;;;;9.00;4.10;;;21.90;99.90;;;;;;5014692;28;20014;-78
2021/07/06 02:43:05;;;;;;;5.53;3.75;;;21.90;99.90;;;;;;5015263;28;20379;-74
2021/07/06 02:45:31;;;;;;;5.07;3.67;;;21.90;99.90;;;;;;5014472;28;20022;-76
2021/07/06 02:47:57;;;;;;;4.50;3.63;;;21.90;99.90;;;;;;5014285;28;20018;-76
2021/07/06 02:50:24;;;;;;;7.82;3.63;;;21.90;99.90;;;;;;5014770;28;20348;-79
2021/07/06 02:52:50;;;;;;;6.97;4.07;;;21.90;99.90;;;;;;5014250;28;20514;-77
2021/07/06 02:55:18;;;;;;;7.28;3.50;;;21.90;99.90;;;;;;5014227;28;20032;-76
2021/07/06 02:57:44;;;;;;;5.97;3.97;;;21.90;99.90;;;;;;5012975;28;20022;-76
2021/07/06 03:00:25;;;;;;;5.13;3.53;;;21.90;99.90;;;;;;5014516;28;20117;-76
2021/07/06 03:02:56;;;;;;;7.15;3.33;;;21.90;99.90;;;;;;5014025;28;20466;-75
2021/07/06 03:05:27;;;;;;;5.57;3.88;;;21.90;99.90;;;;;;5014603;28;20084;-80
2021/07/06 03:07:53;;;;;;;8.48;3.70;;;21.90;99.90;;;;;;5014324;28;20030;-76
2021/07/06 03:10:21;;;;;;;4.05;3.65;;;21.90;99.90;;;;;;5014547;28;20017;-80
2021/07/06 03:12:47;;;;;;;6.03;3.78;;;21.90;99.90;;;;;;5014153;28;20471;-75
2021/07/06 03:15:16;;;;;;;6.38;4.43;;;21.90;99.90;;;;;;5013914;28;20037;-76
2021/07/06 03:17:42;;;;;;;5.53;4.30;;;21.90;99.90;;;;;;5012596;28;20022;-76
2021/07/06 03:20:10;;;;;;;10.52;4.30;;;21.90;99.90;;;;;;5014123;28;20024;-78
2021/07/06 03:22:36;;;;;;;7.55;4.40;;;21.80;99.90;;;;;;5014105;28;20087;-82
2021/07/06 03:25:04;;;;;;;9.95;3.90;;;21.90;99.90;;;;;;5013812;28;20029;-77
2021/07/06 03:27:29;;;;;;;22.65;4.70;;;21.90;99.90;;;;;;5013900;28;20092;-80
2021/07/06 03:29:55;;;;;;;5.13;4.00;;;22.00;99.90;;;;;;5014019;28;20054;-76
2021/07/06 03:32:21;;;;;;;8.88;4.00;;;21.90;99.90;;;;;;5013759;28;20104;-80
2021/07/06 03:34:47;;;;;;;6.45;3.65;;;21.90;99.90;;;;;;5014264;28;20025;-76
2021/07/06 03:37:12;;;;;;;8.32;3.75;;;21.90;99.90;;;;;;5012140;28;20576;-80
2021/07/06 03:39:40;;;;;;;4.25;3.85;;;21.90;99.90;;;;;;5013315;28;20022;-80
2021/07/06 03:42:10;;;;;;;6.15;3.90;;;21.90;99.90;;;;;;5012532;28;20030;-79
2021/07/06 03:44:37;;;;;;;9.02;3.65;;;21.90;99.90;;;;;;5014060;28;20025;-75
2021/07/06 03:47:04;;;;;;;6.90;4.40;;;21.90;99.90;;;;;;5012328;28;20096;-76
2021/07/06 03:49:30;;;;;;;12.80;4.60;;;21.90;99.90;;;;;;5013832;28;20116;-76
2021/07/06 03:51:56;;;;;;;7.57;3.63;;;21.90;99.90;;;;;;5013945;28;20029;-76
2021/07/06 03:54:22;;;;;;;5.38;3.80;;;21.90;99.90;;;;;;5013816;28;20077;-75
2021/07/06 03:56:47;;;;;;;6.05;3.90;;;21.90;99.90;;;;;;5013856;28;20030;-76
2021/07/06 03:59:13;;;;;;;4.55;4.07;;;21.90;99.90;;;;;;5012726;28;20422;-81
2021/07/06 04:01:39;;;;;;;10.10;3.65;;;21.90;99.90;;;;;;5013453;28;20102;-78
2021/07/06 04:04:05;;;;;;;8.27;3.67;;;22.00;99.90;;;;;;5013027;28;20028;-76
2021/07/06 04:06:31;;;;;;;4.93;3.72;;;22.10;99.90;;;;;;5013216;28;20084;-75
2021/07/06 04:08:57;;;;;;;13.55;3.55;;;22.20;99.90;;;;;;5013605;28;20109;-81
2021/07/06 04:11:23;;;;;;;9.27;3.78;;;22.20;99.90;;;;;;5012053;28;20068;-75
2021/07/06 04:13:49;;;;;;;7.57;3.70;;;22.30;99.90;;;;;;5013554;28;20117;-76
2021/07/06 04:16:15;;;;;;;16.73;3.88;;;22.40;99.90;;;;;;5012996;28;20022;-76
2021/07/06 04:18:41;;;;;;;5.20;3.72;;;22.60;99.90;;;;;;5013358;28;20065;-77
2021/07/06 04:21:07;;;;;;;5.32;3.70;;;22.80;99.90;;;;;;5013120;28;20057;-76
2021/07/06 04:23:37;;;;;;;8.50;3.50;;;23.00;99.90;;;;;;5012436;28;20120;-75
2021/07/06 04:26:03;;;;;;;3.72;3.42;;;23.20;99.90;;;;;;5012525;28;20034;-79
2021/07/06 04:28:30;;;;;;;6.95;3.75;;;23.40;99.90;;;;;;5012248;28;20048;-75
2021/07/06 04:30:56;;;;;;;11.27;3.42;;;23.60;99.90;;;;;;5011921;28;20366;-79
2021/07/06 04:33:22;;;;;;;10.73;4.20;;;23.90;99.90;;;;;;5011424;28;20034;-76
2021/07/06 04:35:48;;;;;;;7.93;3.45;;;24.40;99.90;;;;;;5011790;28;20016;-77
2021/07/06 04:38:13;;;;;;;3.55;3.10;;;25.20;99.90;;;;;;5012031;28;20076;-79
2021/07/06 04:40:39;;;;;;;5.82;3.40;;;26.70;99.90;;;;;;5011623;28;20029;-77
2021/07/06 04:43:06;;;;;;;8.45;3.35;;;28.20;99.90;;;;;;5011943;28;20026;-78
2021/07/06 04:45:36;;;;;;;4.18;2.40;;;29.50;99.90;;;;;;5011934;28;20029;-81
2021/07/06 04:48:02;;;;;;;3.58;2.95;;;30.70;99.90;;;;;;5011630;28;20033;-80
2021/07/06 04:50:29;;;;;;;4.55;3.00;;;31.70;99.90;;;;;;5011779;28;20061;-79
2021/07/06 04:52:55;;;;;;;4.35;2.72;;;32.60;99.90;;;;;;5012036;28;20026;-76
2021/07/06 04:55:20;;;;;;;4.53;2.85;;;32.90;99.90;;;;;;5011438;28;20394;-77
2021/07/06 04:57:47;;;;;;;3.97;2.10;;;33.80;99.90;;;;;;5011585;28;20018;-77
2021/07/06 05:00:17;;;;;;;2.75;2.03;;;34.20;99.90;;;;;;5011645;28;20030;-81
2021/07/06 05:02:44;;;;;;;3.67;2.72;;;33.90;99.10;;;;;;5011389;28;20189;-80
2021/07/06 05:05:10;;;;;;;4.82;2.25;;;34.60;98.40;;;;;;5011377;28;20482;-79
2021/07/06 05:07:36;;;;;;;1.95;1.70;;;35.40;97.00;;;;;;5011086;28;20494;-78
2021/07/06 05:10:10;;;;;;;3.25;2.10;;;35.30;96.30;;;;;;5009673;28;20112;-79
2021/07/06 05:12:36;;;;;;;2.95;2.40;;;35.50;95.70;;;;;;5010550;28;20367;-80
2021/07/06 05:15:03;;;;;;;2.75;2.00;;;35.10;95.60;;;;;;5011456;28;20025;-78
2021/07/06 05:17:29;;;;;;;4.97;2.25;;;35.40;95.00;;;;;;5010867;28;20045;-78
2021/07/06 05:19:55;;;;;;;2.25;2.05;;;36.30;94.30;;;;;;5010883;28;20030;-81
2021/07/06 05:22:22;;;;;;;6.78;2.00;;;36.30;93.40;;;;;;5010339;28;20056;-78
2021/07/06 05:24:48;;;;;;;5.47;2.35;;;36.60;93.00;;;;;;5009502;28;20483;-80
2021/07/06 05:27:14;;;;;;;3.70;2.28;;;37.20;92.20;;;;;;5010838;28;20502;-78
2021/07/06 05:29:40;;;;;;;6.68;2.30;;;38.30;91.20;;;;;;5011250;28;20022;-78
2021/07/06 05:32:06;;;;;;;3.60;2.00;;;38.60;90.20;;;;;;5009004;28;20081;-79
2021/07/06 05:34:32;;;;;;;7.18;1.90;;;38.80;89.40;;;;;;5020236;28;20030;-78
2021/07/06 05:36:58;;;;;;;5.88;1.77;;;38.80;87.50;;;;;;5010993;28;20524;-79
2021/07/06 05:39:24;;;;;;;3.53;2.33;;;39.40;86.80;;;;;;5014718;28;20037;-77
2021/07/06 05:41:50;;;;;;;5.35;1.92;;;40.00;86.00;;;;;;5009536;28;20041;-78
2021/07/06 05:44:16;;;;;;;5.03;2.60;;;40.40;84.50;;;;;;5018218;28;20466;-78
2021/07/06 05:46:42;;;;;;;6.60;1.63;;;40.80;83.30;;;;;;5027098;28;20048;-80
2021/07/06 05:49:08;;;;;;;1.85;1.67;;;41.40;82.40;;;;;;5015928;28;20017;-80
2021/07/06 05:51:33;;;;;;;2.83;1.90;;;41.70;81.20;;;;;;5026498;28;20049;-79
2021/07/06 05:53:59;;;;;;;5.35;2.15;;;41.90;79.50;;;;;;5018528;28;20068;-78
2021/07/06 05:56:25;;;;;;;5.28;1.70;;;42.10;79.20;;;;;;5013259;28;20033;-78
2021/07/06 05:58:51;;;;;;;5.70;1.65;;;41.80;78.20;;;;;;5009864;28;20509;-79
2021/07/06 06:01:17;;;;;;;4.28;1.60;;;42.00;78.70;;;;;;5010296;28;20026;-78
2021/07/06 06:03:42;;;;;;;7.68;1.70;;;42.70;76.40;;;;;;5015156;28;20026;-78
2021/07/06 06:06:09;;;;;;;3.88;1.60;;;43.00;76.40;;;;;;5027699;28;20033;-80
2021/07/06 06:08:36;;;;;;;2.60;1.58;;;43.50;74.50;;;;;;5013004;28;20030;-79
2021/07/06 06:11:06;;;;;;;10.45;2.13;;;43.70;73.60;;;;;;5019389;28;20370;-79
2021/07/06 06:13:32;;;;;;;10.02;2.33;;;44.20;72.90;;;;;;5015395;28;20041;-79
2021/07/06 06:15:57;;;;;;;4.80;1.73;;;44.60;71.50;;;;;;5015574;28;20116;-79
2021/07/06 06:18:23;;;;;;;5.25;1.75;;;44.70;70.60;;;;;;5024609;28;20018;-79
2021/07/06 06:20:49;;;;;;;4.80;1.70;;;45.10;69.90;;;;;;5023586;28;20057;-79
2021/07/06 06:23:15;;;;;;;2.63;1.55;;;45.60;68.50;;;;;;5011298;28;20534;-79
2021/07/06 06:25:41;;;;;;;5.00;1.60;;;45.60;67.90;;;;;;5023322;28;20034;-80
2021/07/06 06:28:08;;;;;;;4.13;1.90;;;45.60;67.80;;;;;;5020454;28;20057;-80
2021/07/06 06:30:34;;;;;;;4.28;1.45;;;45.60;66.70;;;;;;5029004;28;20430;-79
2021/07/06 06:33:00;;;;;;;6.82;2.15;;;45.80;66.80;;;;;;5014445;28;20119;-79
2021/07/06 06:35:25;;;;;;;7.72;2.22;;;46.40;65.90;;;;;;5012444;28;20033;-80
2021/07/06 06:37:51;;;;;;;13.93;2.53;;;46.70;65.30;;;;;;5023997;28;20374;-80
2021/07/06 06:40:17;;;;;;;5.75;2.92;;;46.70;64.90;;;;;;5011504;28;20108;-76
2021/07/06 06:42:43;;;;;;;10.90;2.75;;;46.60;64.30;;;;;;5011428;28;20022;-77
2021/07/06 06:45:11;;;;;;;9.65;2.47;;;46.40;64.50;;;;;;5011075;28;20040;-77
2021/07/06 06:47:38;;;;;;;17.52;2.30;;;46.50;64.00;;;;;;5010869;28;20118;-78
2021/07/06 06:50:09;;;;;;;7.68;2.17;;;46.60;64.00;;;;;;5011182;28;20057;-79
2021/07/06 06:52:35;;;;;;;5.88;1.90;;;47.10;63.50;;;;;;5009770;28;20014;-78
2021/07/06 06:55:01;;;;;;;14.55;2.90;;;46.80;63.50;;;;;;5011118;28;20049;-79
2021/07/06 06:57:27;;;;;;;25.92;2.88;;;46.60;63.50;;;;;;5011009;28;20030;-78
2021/07/06 06:59:53;;;;;;;9.27;2.13;;;46.30;63.80;;;;;;5011081;28;20026;-79
2021/07/06 07:02:22;;;;;;;4.82;1.90;;;45.60;64.40;;;;;;5011143;28;20404;-79
2021/07/06 07:04:50;;;;;;;10.52;2.38;;;44.70;65.00;;;;;;5009892;28;20028;-78
2021/07/06 07:07:17;;;;;;;15.13;3.13;;;43.20;67.00;;;;;;5011223;28;20049;-78
2021/07/06 07:09:43;;;;;;;8.45;2.08;;;41.70;69.30;;;;;;5024764;28;20026;-78
2021/07/06 07:12:09;;;;;;;13.35;3.08;;;40.30;72.10;;;;;;5011080;28;20026;-77
2021/07/06 07:14:36;;;;;;;7.55;2.40;;;38.90;74.90;;;;;;5014172;28;20017;-76
2021/07/06 07:17:02;;;;;;;15.93;3.00;;;37.90;77.00;;;;;;5012793;28;20034;-77
2021/07/06 07:19:28;;;;;;;6.35;2.55;;;37.20;78.90;;;;;;5012801;28;20033;-76
2021/07/06 07:21:54;;;;;;;3.65;2.30;;;36.40;81.80;;;;;;5014565;28;20033;-76
2021/07/06 07:24:20;;;;;;;7.40;2.97;;;35.90;83.30;;;;;;5014391;28;20046;-76
2021/07/06 07:26:46;;;;;;;8.57;2.75;;;35.40;84.70;;;;;;5014268;28;20045;-77
2021/07/06 07:29:11;;;;;;;12.80;3.08;;;35.10;85.90;;;;;;5013989;28;20014;-77
2021/07/06 07:31:37;;;;;;;9.02;2.85;;;34.80;86.90;;;;;;5013941;28;20021;-79
2021/07/06 07:34:03;;;;;;;4.53;2.80;;;34.60;87.70;;;;;;5013661;28;20359;-78
2021/07/06 07:36:29;;;;;;;7.88;2.70;;;34.60;87.30;;;;;;5014049;28;20022;-78
2021/07/06 07:38:56;;;;;;;10.30;3.28;;;34.40;87.70;;;;;;5014022;28;20502;-79
2021/07/06 07:41:22;;;;;;;6.25;2.63;;;34.10;88.30;;;;;;5014250;28;20041;-78
2021/07/06 07:43:53;;;;;;;6.25;2.58;;;33.90;89.10;;;;;;5013771;28;20463;-79
2021/07/06 07:46:19;;;;;;;7.28;3.15;;;33.90;89.20;;;;;;5012586;28;20037;-78
2021/07/06 07:48:46;;;;;;;4.25;2.65;;;33.80;89.00;;;;;;5013645;28;20390;-78
2021/07/06 07:51:12;;;;;;;9.98;3.13;;;33.70;89.20;;;;;;5002998;28;20521;-77
2021/07/06 07:53:37;;;;;;;6.55;2.70;;;33.80;89.70;;;;;;5013819;28;20113;-77
2021/07/06 07:56:04;;;;;;;11.88;2.92;;;33.70;90.20;;;;;;5013815;28;20026;-81
2021/07/06 07:58:29;;;;;;;3.88;2.67;;;33.60;90.30;;;;;;5013563;28;20034;-78
2021/07/06 08:00:55;;;;;;;9.15;2.67;;;33.50;90.40;;;;;;5013094;28;20018;-78
2021/07/06 08:03:21;;;;;;;8.10;3.20;;;33.40;90.50;;;;;;5027636;28;20068;-79
2021/07/06 08:05:46;;;;;;;38.83;3.60;;;33.50;90.90;;;;;;5013744;28;20382;-78
2021/07/06 08:08:12;;;;;;;14.27;2.78;;;33.50;90.70;;;;;;5013814;28;20037;-81
2021/07/06 08:10:38;;;;;;;9.15;2.80;;;33.60;90.80;;;;;;5026843;28;20026;-79
2021/07/06 08:13:03;;;;;;;8.52;2.88;;;33.60;91.00;;;;;;5012929;28;20025;-80
2021/07/06 08:15:29;;;;;;;27.10;2.97;;;33.40;91.10;;;;;;5012450;28;20017;-79
2021/07/06 08:17:55;;;;;;;9.07;2.55;;;33.00;91.20;;;;;;5013652;28;20105;-79
2021/07/06 08:20:20;;;;;;;13.10;3.40;;;33.00;91.60;;;;;;5003104;28;20379;-81
2021/07/06 08:22:46;;;;;;;13.85;3.25;;;32.90;91.50;;;;;;5010705;28;20591;-80
2021/07/06 08:25:12;;;;;;;6.60;3.00;;;32.70;91.80;;;;;;5002969;28;20022;-78
2021/07/06 08:27:38;;;;;;;5.18;2.67;;;32.60;91.90;;;;;;5012755;28;20056;-77
2021/07/06 08:30:06;;;;;;;5.30;2.88;;;32.70;92.00;;;;;;5012601;28;20026;-78
2021/07/06 08:32:32;;;;;;;8.48;3.22;;;32.70;92.10;;;;;;5012542;28;20101;-79
2021/07/06 08:34:58;;;;;;;5.10;2.75;;;32.60;92.30;;;;;;5013047;28;20029;-79
2021/07/06 08:37:23;;;;;;;5.28;2.67;;;32.60;92.10;;;;;;5013288;28;20101;-79
2021/07/06 08:39:50;;;;;;;4.35;3.05;;;32.50;91.90;;;;;;5011661;28;20052;-79
2021/07/06 08:42:17;;;;;;;8.25;3.05;;;32.50;92.20;;;;;;5012659;28;20026;-78
2021/07/06 08:44:42;;;;;;;5.75;2.75;;;32.60;92.40;;;;;;5012692;28;20030;-79
2021/07/06 08:47:13;;;;;;;12.38;3.67;;;32.70;92.10;;;;;;5018968;28;20040;-79
2021/07/06 08:49:40;;;;;;;10.02;2.88;;;32.70;92.60;;;;;;5030346;28;20029;-78
2021/07/06 08:52:09;;;;;;;4.15;2.80;;;32.70;92.80;;;;;;5014304;28;20030;-79
2021/07/06 08:54:35;;;;;;;3.45;2.63;;;32.70;92.20;;;;;;5012746;28;20382;-77
2021/07/06 08:57:00;;;;;;;10.50;3.25;;;32.70;92.00;;;;;;5012445;28;20022;-83
2021/07/06 08:59:26;;;;;;;4.53;2.50;;;32.50;92.60;;;;;;5011494;28;20021;-78
2021/07/06 09:01:52;;;;;;;4.57;2.88;;;32.40;92.30;;;;;;5012879;28;20030;-79
2021/07/06 09:04:17;;;;;;;4.70;2.42;;;32.40;92.90;;;;;;5012142;28;20025;-79
2021/07/06 09:06:54;;;;;;;7.85;1.95;;;32.30;92.70;;;;;;5011086;28;20136;-78
2021/07/06 09:09:22;;;;;;;6.15;3.15;;;32.50;91.70;;;;;;5011845;28;20470;-78
2021/07/06 09:11:55;;;;;;;4.40;2.38;;;32.60;92.70;;;;;;5026141;28;20088;-77
2021/07/06 09:14:31;;;;;;;6.10;2.42;;;32.70;91.10;;;;;;5020342;28;20366;-79
2021/07/06 09:17:18;;;;;;;7.35;2.80;;;32.60;91.40;;;;;;5025047;28;20109;-79
2021/07/06 09:19:48;;;;;;;8.98;2.38;;;32.70;92.30;;;;;;5031505;28;20438;-78
2021/07/06 09:22:19;;;;;;;4.10;2.72;;;32.70;90.90;;;;;;5030680;28;20045;-79
2021/07/06 09:24:48;;;;;;;6.65;3.20;;;32.70;91.40;;;;;;5012282;28;20041;-78
2021/07/06 09:27:23;;;;;;;5.43;3.10;;;32.50;92.00;;;;;;5018563;28;20038;-78
2021/07/06 09:30:18;;;;;;;4.72;3.42;;;32.40;93.40;;;;;;5026466;28;20022;-78
2021/07/06 09:32:49;;;;;;;5.30;3.35;;;32.20;93.80;;;;;;5022732;28;20030;-78
2021/07/06 09:35:17;;;;;;;;;;;32.10;94.10;;;;;;5021512;28;20025;-78
2021/07/06 09:37:49;;;;;;;6.53;3.10;;;32.10;94.50;;;;;;5028222;28;19951;-78
2021/07/06 09:40:31;;;;;;;11.27;3.58;;;32.20;94.20;;;;;;5029350;28;20517;-78
2021/07/06 09:43:15;;;;;;;4.88;3.42;;;32.20;94.30;;;;;;5029146;28;20116;-79
2021/07/06 09:45:45;;;;;;;4.53;3.63;;;32.00;94.30;;;;;;5031858;28;20075;-79
2021/07/06 09:48:11;;;;;;;6.78;2.72;;;31.90;94.50;;;;;;5015375;28;20525;-78
2021/07/06 09:50:37;;;;;;;7.82;3.10;;;31.80;94.50;;;;;;5011110;28;20037;-77
2021/07/06 09:53:03;;;;;;;3.85;3.20;;;31.70;94.30;;;;;;5011273;28;20018;-78
2021/07/06 09:55:30;;;;;;;12.80;3.13;;;31.60;94.70;;;;;;5011444;28;20029;-79
2021/07/06 09:57:56;;;;;;;4.00;2.58;;;31.50;94.70;;;;;;5023680;28;20036;-80
2021/07/06 10:00:23;;;;;;;6.00;3.08;;;31.50;95.00;;;;;;5013298;28;20029;-79
2021/07/06 10:02:58;;;;;;;8.93;2.95;;;31.40;94.90;;;;;;5012052;28;20359;-80
2021/07/06 10:05:24;;;;;;;5.68;2.70;;;31.30;95.30;;;;;;5011351;28;20482;-78
2021/07/06 10:07:50;;;;;;;4.28;3.00;;;31.30;95.20;;;;;;5011401;28;20047;-77
2021/07/06 10:10:15;;;;;;;7.10;3.28;;;31.40;96.10;;;;;;5011458;28;20030;-79
2021/07/06 10:12:43;;;;;;;3.95;2.65;;;31.50;96.10;;;;;;5025681;28;20474;-80
2021/07/06 10:15:10;;;;;;;5.68;3.35;;;31.40;95.60;;;;;;5010383;28;20186;-82
2021/07/06 10:17:38;;;;;;;4.93;2.45;;;31.30;95.80;;;;;;5020759;28;20818;-79
2021/07/06 10:20:09;;;;;;;5.47;2.55;;;31.30;95.80;;;;;;5015270;28;20105;-78
2021/07/06 10:22:35;;;;;;;;;;;31.30;95.00;;;;;;5011999;28;20399;-81
2021/07/06 10:25:03;;;;;;;6.45;3.15;;;31.20;94.80;;;;;;5011684;28;19916;-81
2021/07/06 10:27:32;;;;;;;6.50;2.33;;;31.20;95.20;;;;;;5027402;28;20505;-78
2021/07/06 10:30:16;;;;;;;10.30;2.30;;;31.10;95.20;;;;;;5022626;28;20542;-79
2021/07/06 10:32:50;;;;;;;4.82;2.60;;;31.10;94.90;;;;;;5011254;28;20033;-79
2021/07/06 10:35:36;;;;;;;7.63;2.92;;;31.10;94.80;;;;;;5011096;28;20026;-78
2021/07/06 10:38:48;;;;;;;6.32;2.33;;;31.00;95.00;;;;;;5011034;28;20021;-78
2021/07/06 10:41:21;;;;;;;6.90;2.63;;;31.20;94.90;;;;;;5009696;28;20085;-78
2021/07/06 10:43:51;;;;;;;3.58;2.80;;;31.40;95.00;;;;;;5014398;28;20042;-78
2021/07/06 10:46:30;;;;;;;8.75;2.55;;;31.50;94.60;;;;;;5007266;28;20364;-78
2021/07/06 10:49:25;;;;;;;3.30;2.58;;;31.70;94.10;;;;;;5018255;28;20025;-78
2021/07/06 10:51:53;;;;;;;3.95;2.35;;;31.70;93.30;;;;;;5013256;28;20029;-78
2021/07/06 10:54:29;;;;;;;3.80;2.38;;;31.60;93.00;;;;;;5013329;28;20056;-79
2021/07/06 10:57:07;;;;;;;5.25;2.55;;;31.50;93.10;;;;;;5013649;28;20030;-79
2021/07/06 10:59:34;;;;;;;7.80;2.47;;;31.60;93.40;;;;;;5011112;28;20402;-79
2021/07/06 11:02:01;;;;;;;5.63;2.60;;;31.60;93.40;;;;;;5015171;28;20053;-81
2021/07/06 11:04:51;;;;;;;2.60;2.15;;;31.40;93.40;;;;;;5012909;28;20033;-80
2021/07/06 11:07:28;;;;;;;3.78;2.28;;;31.40;94.10;;;;;;5013385;28;20160;-79
2021/07/06 11:09:54;;;;;;;2.97;2.65;;;31.50;94.40;;;;;;5014591;28;20104;-80
2021/07/06 11:12:35;;;;;;;8.15;2.85;;;31.50;94.10;;;;;;5014518;28;20057;-78
2021/07/06 11:15:01;;;;;;;6.38;2.95;;;31.60;93.60;;;;;;5022903;28;20029;-79
2021/07/06 11:17:38;;;;;;;3.78;2.40;;;31.50;93.20;;;;;;5024814;28;20028;-78
2021/07/06 11:20:15;;;;;;;10.68;2.40;;;31.50;93.70;;;;;;5017155;28;20030;-78
2021/07/06 11:22:48;;;;;;;5.50;2.80;;;31.40;93.60;;;;;;5016898;28;20071;-78
2021/07/06 11:25:19;;;;;;;5.18;2.75;;;31.30;94.10;;;;;;5014697;28;20154;-77
2021/07/06 11:28:03;;;;;;;4.03;2.90;;;31.20;93.80;;;;;;5014280;28;20045;-77
2021/07/06 11:30:49;;;;;;;4.38;2.45;;;31.20;94.40;;;;;;5011329;28;20022;-78
2021/07/06 11:33:30;;;;;;;3.63;2.50;;;31.30;93.90;;;;;;5013567;28;20030;-79
2021/07/06 11:36:04;;;;;;;6.20;3.08;;;31.20;94.40;;;;;;5003286;28;20029;-78
2021/07/06 11:38:38;;;;;;;10.02;3.42;;;31.10;94.70;;;;;;5013932;28;20026;-79
2021/07/06 11:41:06;;;;;;;3.92;2.80;;;31.00;94.30;;;;;;5003983;28;20359;-79
2021/07/06 11:43:33;;;;;;;3.63;2.35;;;31.00;94.90;;;;;;5012517;28;20026;-79
2021/07/06 11:46:03;;;;;;;6.22;2.53;;;31.10;95.20;;;;;;5013528;28;20057;-79
2021/07/06 11:48:34;;;;;;;4.43;2.63;;;31.10;94.90;;;;;;5013223;28;20041;-79
2021/07/06 11:51:03;;;;;;;6.38;2.10;;;31.10;95.10;;;;;;5013632;28;20014;-76
2021/07/06 11:53:31;;;;;;;6.07;2.28;;;31.10;95.10;;;;;;5014021;28;20109;-80
2021/07/06 11:55:59;;;;;;;2.33;2.13;;;31.10;95.40;;;;;;5013434;28;20381;-78
2021/07/06 11:58:27;;;;;;;3.25;2.55;;;31.10;95.20;;;;;;5013087;28;20030;-78
2021/07/06 12:00:59;;;;;;;4.30;2.42;;;31.10;94.50;;;;;;5012863;28;20026;-79
2021/07/06 12:03:25;;;;;;;;;;;31.10;94.80;;;;;;5013961;28;20080;-78
2021/07/06 12:05:57;;;;;;;5.63;2.08;;;31.10;95.50;;;;;;5012839;28;20381;-76
2021/07/06 12:08:27;;;;;;;5.60;2.30;;;31.20;93.50;;;;;;5002660;28;20065;-76
2021/07/06 12:11:08;;;;;;;9.25;2.53;;;31.20;94.10;;;;;;5013000;28;20061;-75
2021/07/06 12:13:41;;;;;;;3.92;2.10;;;31.20;95.50;;;;;;5013725;28;20026;-76
2021/07/06 12:16:13;;;;;;;6.43;2.30;;;31.30;95.80;;;;;;5012976;28;20033;-77
2021/07/06 12:19:00;;;;;;;4.15;2.00;;;31.30;96.10;;;;;;5013018;28;20478;-76
2021/07/06 12:21:30;;;;;;;4.28;2.63;;;31.30;96.00;;;;;;5012531;28;20448;-76
2021/07/06 12:23:58;;;;;;;5.82;2.33;;;31.30;96.30;;;;;;5012644;28;20088;-75
2021/07/06 12:26:24;;;;;;;2.92;2.05;;;31.30;96.40;;;;;;5011911;28;20022;-76
2021/07/06 12:28:50;;;;;;;3.92;1.98;;;31.20;96.70;;;;;;5013769;28;20026;-76
2021/07/06 12:31:25;;;;;;;3.55;1.63;;;31.10;96.10;;;;;;5013507;28;20447;-76
2021/07/06 12:34:04;;;;;;;2.60;2.00;;;31.00;95.80;;;;;;5009821;28;20109;-76
2021/07/06 12:36:36;;;;;;;3.60;1.90;;;30.90;94.50;;;;;;5011493;28;20449;-77
2021/07/06 12:39:20;;;;;;;3.53;2.00;;;30.80;95.00;;;;;;5012174;28;20018;-76
2021/07/06 12:42:10;;;;;;;5.43;2.50;;;30.80;94.30;;;;;;5013488;28;20033;-76
2021/07/06 12:44:38;;;;;;;7.43;2.00;;;30.70;94.60;;;;;;5011625;28;20660;-77
2021/07/06 12:47:25;;;;;;;2.55;1.65;;;30.70;94.30;;;;;;5011231;28;20083;-77
2021/07/06 12:49:52;;;;;;;3.30;2.13;;;30.70;94.40;;;;;;5012497;28;20032;-77
2021/07/06 12:52:20;;;;;;;10.07;1.90;;;30.70;94.60;;;;;;5012728;28;20018;-76